Time;durP1;ratioP1;P1;durP2;ratioP2;P2;SDS_P1;SDS_P2;PMS_P1;PMS_P2;Temp;Humidity;BMP_temperature;BMP_pressure;BME280_temperature;BME280_humidity;BME280_pressure;Samples;Min_cycle;Max_cycle;Signal;HPM_P1;HPM_P2
2021/12/15 00:04:03;;;;;;;;;;;4.40;99.90;;;3.31;100.00;96836.75;10435250;28;1812;-72
2021/12/15 00:09:06;;;;;;;;;;;4.50;99.90;;;3.35;100.00;96840.63;10432128;28;1883;-71
2021/12/15 00:14:09;;;;;;;;;;;4.30;99.90;;;3.32;100.00;96850.88;10429488;28;2141;-72
2021/12/15 00:19:13;;;;;;;;;;;4.40;99.90;;;3.29;100.00;96846.75;10440481;28;1845;-70
2021/12/15 00:24:16;;;;;;;;;;;4.30;99.90;;;3.21;100.00;96846.94;10444783;28;1936;-72
2021/12/15 00:29:19;;;;;;;;;;;4.40;99.90;;;3.28;100.00;96852.28;10434307;28;1905;-73
2021/12/15 00:34:23;;;;;;;;;;;4.30;99.90;;;3.23;100.00;96851.03;10439689;28;1906;-71
2021/12/15 00:39:27;;;;;;;;;;;4.30;99.90;;;3.20;100.00;96846.13;10458965;28;1879;-71
2021/12/15 00:44:30;;;;;;;;;;;4.30;99.90;;;3.27;100.00;96850.66;10459018;28;1523;-71
2021/12/15 00:49:33;;;;;;;;;;;4.30;99.90;;;3.27;100.00;96855.97;10449620;28;1778;-71
2021/12/15 00:54:37;;;;;;;;;;;4.30;99.90;;;3.30;100.00;96856.34;10456324;28;1891;-71
2021/12/15 00:59:40;;;;;;;;;;;4.30;99.90;;;3.38;100.00;96858.03;10449370;28;1924;-71
2021/12/15 01:04:43;;;;;;;;;;;4.40;99.90;;;3.32;100.00;96856.19;10443053;28;1890;-71
2021/12/15 01:09:48;;;;;;;;;;;4.40;99.90;;;3.30;100.00;96872.31;10442230;28;1591;-71
2021/12/15 01:20:11;;;;;;;;;;;4.40;99.90;;;3.44;100.00;96874.00;10443331;28;1862;-71
2021/12/15 01:25:14;;;;;;;;;;;4.40;99.90;;;3.41;100.00;96874.38;10440694;28;1930;-71
2021/12/15 01:30:19;;;;;;;;;;;4.40;99.90;;;3.45;100.00;96872.16;10443902;28;1985;-72
2021/12/15 01:35:22;;;;;;;;;;;4.50;99.90;;;3.43;100.00;96869.69;10433919;28;1973;-71
2021/12/15 01:40:32;;;;;;;;;;;4.60;99.90;;;3.44;100.00;96881.16;10436844;28;1764;-71
2021/12/15 01:50:57;;;;;;;;;;;4.50;99.90;;;3.55;100.00;96885.84;10431809;28;1886;-71
2021/12/15 01:56:00;;;;;;;;;;;4.50;99.90;;;3.59;100.00;96887.09;10451319;28;2052;-70
2021/12/15 02:01:03;;;;;;;;;;;4.50;99.90;;;3.52;100.00;96887.09;10438929;28;1828;-72
2021/12/15 02:06:07;;;;;;;;;;;4.50;99.90;;;3.60;100.00;96883.41;10447838;28;1891;-70
2021/12/15 02:11:09;;;;;;;;;;;4.50;99.90;;;3.54;100.00;96876.25;10432262;28;1954;-72
2021/12/15 02:16:13;;;;;;;;;;;4.60;99.90;;;3.58;100.00;96877.50;10426458;28;1914;-73
2021/12/15 02:21:17;;;;;;;;;;;4.70;99.90;;;3.49;100.00;96876.84;10429417;28;2167;-70
2021/12/15 02:26:20;;;;;;;;;;;4.70;99.90;;;3.47;100.00;96872.75;10441478;28;1876;-71
2021/12/15 02:31:38;;;;;;;;;;;4.60;99.90;;;3.41;100.00;96863.75;10437915;28;1853;-72
2021/12/15 02:42:03;;;;;;;;;;;4.60;99.90;;;3.41;100.00;96860.28;10434072;28;1900;-72
2021/12/15 02:47:06;;;;;;;;;;;4.50;99.90;;;3.42;100.00;96859.25;10428225;28;1926;-72
2021/12/15 02:52:09;;;;;;;;;;;4.50;99.90;;;3.47;100.00;96856.81;10419663;28;1706;-70
2021/12/15 02:57:13;;;;;;;;;;;4.50;99.90;;;3.41;100.00;96868.25;10438652;28;1919;-72
2021/12/15 03:02:35;;;;;;;;;;;4.50;99.90;;;3.42;100.00;96867.22;10447215;28;1909;-71
2021/12/15 03:07:44;;;;;;;;;;;4.50;99.90;;;3.40;100.00;96869.28;10429164;28;2023;-71
2021/12/15 03:18:07;;;;;;;;;;;4.50;99.90;;;3.53;100.00;96866.63;10438293;28;2034;-72
2021/12/15 03:23:10;;;;;;;;;;;4.50;99.90;;;3.41;100.00;96871.72;10431458;28;1936;-71
2021/12/15 03:33:44;;;;;;;;;;;4.60;99.90;;;3.39;100.00;96865.00;10461580;28;1887;-71
2021/12/15 03:38:47;;;;;;;;;;;4.50;99.90;;;3.29;100.00;96872.50;10453369;28;1970;-71
2021/12/15 03:43:51;;;;;;;;;;;4.40;99.90;;;3.20;100.00;96878.03;10450410;28;1929;-71
2021/12/15 03:48:54;;;;;;;;;;;4.30;99.90;;;3.20;100.00;96880.69;10429867;28;2377;-71
2021/12/15 03:53:57;;;;;;;;;;;4.30;99.90;;;3.16;100.00;96883.94;10436816;28;1965;-71
2021/12/15 03:59:00;;;;;;;;;;;4.30;99.90;;;3.04;100.00;96889.00;10427046;28;2008;-71
2021/12/15 04:04:03;;;;;;;;;;;4.20;99.90;;;3.06;100.00;96880.84;10440127;28;2034;-71
2021/12/15 04:09:06;;;;;;;;;;;4.20;99.90;;;3.01;100.00;96892.06;10438623;28;1960;-71
2021/12/15 04:14:11;;;;;;;;;;;4.20;99.90;;;2.87;100.00;96895.69;10419158;28;1973;-71
2021/12/15 04:19:34;;;;;;;;;;;4.10;99.90;;;2.81;100.00;96897.28;10429245;28;1968;-72
2021/12/15 04:24:38;;;;;;;;;;;4.00;99.90;;;2.82;100.00;96898.09;10420342;28;2071;-72
2021/12/15 04:29:41;;;;;;;;;;;3.90;99.90;;;2.83;100.00;96902.38;10425802;28;1949;-72
2021/12/15 04:34:44;;;;;;;;;;;3.90;99.90;;;2.86;100.00;96901.97;10426464;28;1924;-70
2021/12/15 04:39:47;;;;;;;;;;;4.00;99.90;;;2.87;100.00;96904.47;10424224;28;1961;-72
2021/12/15 04:44:52;;;;;;;;;;;3.90;99.90;;;2.92;100.00;96906.50;10448210;28;1886;-71
2021/12/15 04:49:55;;;;;;;;;;;4.00;99.90;;;3.00;100.00;96903.69;10433319;28;1878;-71
2021/12/15 04:54:58;;;;;;;;;;;4.00;99.90;;;3.03;100.00;96903.28;10433717;28;2032;-71
2021/12/15 05:00:02;;;;;;;;;;;4.10;99.90;;;3.13;100.00;96903.75;10432631;28;1997;-70
2021/12/15 05:05:05;;;;;;;;;;;4.10;99.90;;;3.24;100.00;96915.63;10442882;28;1936;-72
2021/12/15 05:10:08;;;;;;;;;;;4.20;99.90;;;3.24;100.00;96916.47;10433341;28;1865;-72
2021/12/15 05:15:11;;;;;;;;;;;4.20;99.90;;;3.21;100.00;96922.16;10439264;28;1940;-72
2021/12/15 05:20:15;;;;;;;;;;;4.30;99.90;;;3.19;100.00;96932.19;10428270;28;1981;-72
2021/12/15 05:25:18;;;;;;;;;;;4.40;99.90;;;3.18;100.00;96927.91;10429388;28;2042;-71
2021/12/15 05:30:21;;;;;;;;;;;4.30;99.90;;;3.21;100.00;96931.97;10435606;28;1944;-70
2021/12/15 05:35:25;;;;;;;;;;;4.20;99.90;;;3.15;100.00;96928.28;10450661;28;1985;-72
2021/12/15 05:40:28;;;;;;;;;;;4.30;99.90;;;3.13;100.00;96925.00;10440114;28;1983;-71
2021/12/15 05:45:31;;;;;;;;;;;4.20;99.90;;;3.14;100.00;96953.22;10445673;28;1931;-71
2021/12/15 05:50:34;;;;;;;;;;;4.20;99.90;;;3.13;100.00;96946.25;10428733;28;2082;-73
2021/12/15 05:55:38;;;;;;;;;;;4.20;99.90;;;3.07;100.00;96963.00;10436672;28;2003;-69
2021/12/15 06:00:41;;;;;;;;;;;4.20;99.90;;;3.00;100.00;96964.78;10441883;28;1975;-70
2021/12/15 06:05:44;;;;;;;;;;;4.10;99.90;;;3.00;100.00;96967.44;10431609;28;1995;-71
2021/12/15 06:10:47;;;;;;;;;;;4.00;99.90;;;3.05;100.00;96974.81;10461995;28;1945;-71
2021/12/15 06:15:51;;;;;;;;;;;4.10;99.90;;;3.01;100.00;96978.91;10435379;28;1906;-71
2021/12/15 06:20:54;;;;;;;;;;;4.10;99.90;;;2.93;100.00;96987.84;10434182;28;1995;-70
2021/12/15 06:25:57;;;;;;;;;;;4.00;99.90;;;3.09;100.00;96995.47;10432673;28;2028;-71
2021/12/15 06:31:01;;;;;;;;;;;4.10;99.90;;;2.99;100.00;97000.34;10435823;28;2063;-71
2021/12/15 06:36:05;;;;;;;;;;;4.10;99.90;;;3.06;100.00;96998.56;10453828;22;2129;-74
2021/12/15 06:41:08;;;;;;;;;;;4.10;99.90;;;3.03;100.00;97008.72;10430748;28;2111;-76
2021/12/15 06:46:32;;;;;;;;;;;4.10;99.90;;;3.19;100.00;97008.44;10447327;28;1988;-74
2021/12/15 07:02:17;;;;;;;;;;;4.30;99.90;;;3.06;100.00;97024.28;10446051;28;1851;-73
2021/12/15 07:07:20;;;;;;;;;;;4.10;99.90;;;2.96;100.00;97033.41;10443404;28;1840;-73
2021/12/15 07:12:24;;;;;;;;;;;4.10;99.90;;;2.97;100.00;97036.88;10437475;28;1867;-73
2021/12/15 07:17:28;;;;;;;;;;;4.10;99.90;;;2.94;100.00;97037.28;10435623;28;1985;-73
2021/12/15 07:22:34;;;;;;;;;;;4.00;99.90;;;3.03;100.00;97036.13;10436565;28;1898;-74
2021/12/15 07:27:37;;;;;;;;;;;4.10;99.90;;;3.04;100.00;97037.75;10439336;28;1832;-74
2021/12/15 07:32:40;;;;;;;;;;;4.10;99.90;;;3.03;100.00;97038.78;10429108;28;1894;-73
2021/12/15 07:37:43;;;;;;;;;;;4.00;99.90;;;3.10;100.00;97036.16;10438438;28;1902;-79
2021/12/15 07:42:56;;;;;;;;;;;4.10;99.90;;;3.12;100.00;97044.78;10435936;28;1920;-76
2021/12/15 07:47:59;;;;;;;;;;;4.20;99.90;;;3.13;100.00;97057.03;10427430;28;1956;-75
2021/12/15 07:53:02;;;;;;;;;;;4.20;99.90;;;3.11;100.00;97067.84;10430999;28;1910;-77
2021/12/15 07:58:05;;;;;;;;;;;4.20;99.90;;;3.16;100.00;97065.41;10440299;28;1913;-77
2021/12/15 08:03:09;;;;;;;;;;;4.20;99.90;;;3.12;100.00;97069.50;10439873;28;1890;-77
2021/12/15 08:08:12;;;;;;;;;;;4.20;99.90;;;3.19;100.00;97085.47;10435814;28;1890;-76
2021/12/15 08:13:16;;;;;;;;;;;4.20;99.90;;;3.24;100.00;97088.34;10432755;28;1968;-77
2021/12/15 08:18:19;;;;;;;;;;;4.30;99.90;;;3.40;100.00;97089.88;10442292;28;1901;-77
2021/12/15 08:23:22;;;;;;;;;;;4.30;99.90;;;3.44;100.00;97080.53;10454969;28;2013;-79
2021/12/15 08:28:26;;;;;;;;;;;4.40;99.90;;;3.64;100.00;97085.94;10446700;28;1828;-78
2021/12/15 08:33:28;;;;;;;;;;;4.60;99.90;;;3.53;100.00;97089.97;10436616;28;1876;-77
2021/12/15 08:38:32;;;;;;;;;;;4.60;99.90;;;3.47;100.00;97091.56;10441769;28;1992;-74
2021/12/15 08:43:35;;;;;;;;;;;4.50;99.90;;;3.41;100.00;97091.53;10445119;28;1984;-73
2021/12/15 08:48:39;;;;;;;;;;;;;;;3.58;100.00;97086.72;10441628;28;1923;-73
2021/12/15 08:53:42;;;;;;;;;;;;;;;3.58;100.00;97086.72;10439611;28;1787;-74
2021/12/15 08:58:45;;;;;;;;;;;;;;;3.66;100.00;97092.69;10434037;28;1989;-74
2021/12/15 09:03:49;;;;;;;;;;;;;;;3.65;100.00;97099.03;10434668;28;1854;-74
2021/12/15 09:08:53;;;;;;;;;;;;;;;3.74;100.00;97095.16;10435448;28;1970;-74
2021/12/15 09:13:56;;;;;;;;;;;;;;;3.76;100.00;97102.97;10456429;28;1871;-74
2021/12/15 09:19:00;;;;;;;;;;;;;;;3.93;100.00;97101.59;10432029;28;1904;-74
2021/12/15 09:24:03;;;;;;;;;;;5.10;99.90;;;3.91;100.00;97097.50;10437360;28;1823;-75
2021/12/15 09:29:06;;;;;;;;;;;4.90;99.90;;;4.07;100.00;97081.16;10436069;28;1910;-74
2021/12/15 09:34:11;;;;;;;;;;;5.00;99.90;;;4.17;100.00;97092.25;10439709;28;1785;-72
2021/12/15 09:39:14;;;;;;;;;;;;;;;4.07;100.00;97097.97;10447137;28;1981;-73
2021/12/15 09:44:21;;;;;;;;;;;;;;;4.13;100.00;97093.66;10440806;28;2197;-73
2021/12/15 10:05:46;;;;;;;;;;;;;;;4.17;100.00;97089.59;10456175;28;1832;-77
2021/12/15 10:11:13;;;;;;;;;;;;;;;4.18;100.00;97087.75;10453517;28;1860;-80
2021/12/15 10:21:34;;;;;;;;;;;;;;;4.32;100.00;97084.91;10436412;28;2235;-79
2021/12/15 10:26:38;;;;;;;;;;;;;;;4.26;100.00;97069.78;10455437;28;1868;-79
2021/12/15 10:31:42;;;;;;;;;;;;;;;4.10;100.00;97067.47;10447560;28;1948;-77
2021/12/15 10:36:45;;;;;;;;;;;;;;;3.98;100.00;97067.22;10471916;28;1886;-79
2021/12/15 10:41:49;;;;;;;;;;;;;;;4.02;100.00;97065.00;10458896;28;1828;-77
2021/12/15 10:46:53;;;;;;;;;;;;;;;4.03;100.00;97066.63;10463016;28;1963;-77
2021/12/15 10:51:58;;;;;;;;;;;;;;;4.16;100.00;97061.34;10459870;28;1995;-80
2021/12/15 10:57:01;;;;;;;;;;;;;;;4.19;100.00;97065.44;10477794;28;1959;-80
2021/12/15 11:02:05;;;;;;;;;;;;;;;4.05;100.00;97059.25;10480131;28;1860;-81
2021/12/15 11:07:09;;;;;;;;;;;;;;;4.04;100.00;97054.97;10443807;28;1853;-81
2021/12/15 11:12:12;;;;;;;;;;;;;;;4.00;100.00;97054.53;10445110;28;1776;-79
2021/12/15 11:17:16;;;;;;;;;;;;;;;3.84;100.00;97054.91;10451162;28;1924;-80
2021/12/15 11:22:19;;;;;;;;;;;;;;;3.89;100.00;97035.69;10456789;28;1848;-80
2021/12/15 11:27:22;;;;;;;;;;;;;;;4.04;100.00;97031.84;10454295;28;1762;-79
2021/12/15 11:32:26;;;;;;;;;;;;;;;4.06;100.00;97044.94;10464218;28;1736;-80
2021/12/15 11:37:29;;;;;;;;;;;;;;;4.08;100.00;97032.25;10497929;28;1947;-79
2021/12/15 11:42:32;;;;;;;;;;;;;;;4.09;100.00;97033.91;10475332;28;1930;-80
2021/12/15 11:47:37;;;;;;;;;;;;;;;4.17;100.00;97025.72;10487660;28;1789;-80
2021/12/15 11:52:40;;;;;;;;;;;;;;;3.97;100.00;97028.34;10476571;28;1916;-80
2021/12/15 11:57:43;;;;;;;;;;;;;;;4.03;100.00;97029.38;10457953;28;1891;-78
2021/12/15 12:02:47;;;;;;;;;;;;;;;4.20;100.00;97017.34;10453295;28;1886;-79
2021/12/15 12:07:54;;;;;;;;;;;;;;;4.24;100.00;97018.56;10446858;28;1956;-78
2021/12/15 12:13:03;;;;;;;;;;;;;;;4.30;100.00;97012.41;10459020;28;1963;-79
2021/12/15 12:18:06;;;;;;;;;;;;;;;4.37;100.00;96995.63;10457260;28;1978;-79
2021/12/15 12:23:10;;;;;;;;;;;;;;;4.15;100.00;96998.50;10453507;28;1804;-78
2021/12/15 12:28:13;;;;;;;;;;;;;;;4.13;100.00;96994.38;10452321;28;1920;-78
2021/12/15 12:33:17;;;;;;;;;;;;;;;4.25;100.00;96988.25;10450683;28;1915;-79
2021/12/15 12:38:20;;;;;;;;;;;;;;;4.32;100.00;96983.75;10446331;28;1960;-78
2021/12/15 12:43:23;;;;;;;;;;;;;;;4.47;100.00;96974.75;10447771;28;2235;-78
2021/12/15 12:48:40;;;;;;;;;;;;;;;4.64;100.00;96975.13;10448731;28;1856;-79
2021/12/15 12:59:24;;;;;;;;;;;;;;;4.81;100.00;96966.50;10429650;28;2053;-78
2021/12/15 13:04:27;;;;;;;;;;;;;;;4.82;100.00;96962.81;10445828;28;1983;-75
2021/12/15 13:09:31;;;;;;;;;;;;;;;4.81;100.00;96965.69;10449284;28;1866;-78
2021/12/15 13:14:34;;;;;;;;;;;;;;;4.76;100.00;96958.31;10445720;28;2152;-77
2021/12/15 13:19:56;;;;;;;;;;;;;;;4.83;100.00;96964.44;10448438;28;1980;-77
2021/12/15 13:30:20;;;;;;;;;;;;;;;4.65;100.00;96964.31;10458816;22;3641;-71
2021/12/15 13:35:23;;;;;;;;;;;;;;;4.64;100.00;96965.31;10451309;28;2034;-74
2021/12/15 13:40:27;;;;;;;;;;;;;;;4.46;100.00;96957.97;10449004;28;1944;-72
2021/12/15 13:45:30;;;;;;;;;;;;;;;4.33;100.00;96957.97;10449951;28;1955;-72
2021/12/15 13:50:34;;;;;;;;;;;;;;;4.52;100.00;96959.00;10442921;28;2001;-72
2021/12/15 13:55:37;;;;;;;;;;;;;;;4.45;100.00;96966.13;10449759;28;2070;-71
2021/12/15 14:00:40;;;;;;;;;;;;;;;4.41;100.00;96964.94;10444793;28;1982;-72
2021/12/15 14:05:44;;;;;;;;;;;;;;;4.32;100.00;96967.78;10434503;28;1952;-69
2021/12/15 14:10:47;;;;;;;;;;;;;;;4.39;100.00;96967.81;10440316;28;1878;-72
2021/12/15 14:15:50;;;;;;;;;;;;;;;4.38;100.00;96971.47;10443843;28;1886;-71
2021/12/15 14:20:54;;;;;;;;;;;;;;;4.40;100.00;96971.28;10444473;28;1914;-71
2021/12/15 14:25:57;;;;;;;;;;;;;;;4.44;100.00;96967.16;10438634;28;1840;-72
2021/12/15 14:31:00;;;;;;;;;;;;;;;4.41;100.00;96960.41;10445658;28;1956;-72
2021/12/15 14:36:04;;;;;;;;;;;;;;;4.42;100.00;96967.38;10442871;28;1764;-71
2021/12/15 14:41:08;;;;;;;;;;;;;;;4.29;100.00;96962.06;10442014;28;1951;-72
2021/12/15 14:46:11;;;;;;;;;;;;;;;4.22;100.00;96967.38;10443535;28;1838;-71
2021/12/15 14:51:15;;;;;;;;;;;;;;;4.23;100.00;96963.69;10438347;28;1888;-71
2021/12/15 14:56:18;;;;;;;;;;;;;;;4.15;100.00;96965.75;10439957;28;1859;-73
2021/12/15 15:01:21;;;;;;;;;;;;;;;4.14;100.00;96970.25;10447029;28;1960;-71
2021/12/15 15:06:25;;;;;;;;;;;;;;;4.07;100.00;96975.56;10441206;28;1831;-72
2021/12/15 15:11:29;;;;;;;;;;;;;;;4.15;100.00;96968.41;10427696;28;1931;-72
2021/12/15 15:16:35;;;;;;;;;;;;;;;4.06;100.00;96967.75;10443389;28;1919;-71
2021/12/15 15:21:40;;;;;;;;;;;;;;;4.15;100.00;96979.06;10428416;28;1913;-72
2021/12/15 15:26:43;;;;;;;;;;;5.00;99.90;;;4.19;100.00;96983.75;10431481;28;2328;-72
2021/12/15 15:31:47;;;;;;;;;;;;;;;4.21;100.00;96992.38;10431643;28;1928;-70
2021/12/15 15:36:51;;;;;;;;;;;;;;;4.09;100.00;97001.97;10428037;28;1969;-70
2021/12/15 15:41:56;;;;;;;;;;;;;;;4.06;100.00;97000.50;10446549;28;1922;-69
2021/12/15 15:46:59;;;;;;;;;;;;;;;4.03;100.00;97016.06;10440296;28;1875;-70
2021/12/15 15:52:04;;;;;;;;;;;;;;;4.02;100.00;97014.44;10445207;28;1892;-71
2021/12/15 15:57:12;;;;;;;;;;;;;;;4.05;100.00;97022.00;10435104;28;1920;-71
2021/12/15 16:02:15;;;;;;;;;;;;;;;3.94;100.00;97027.91;10443446;28;1922;-71
2021/12/15 16:07:19;;;;;;;;;;;4.90;99.90;;;3.97;100.00;97023.03;10440461;28;1904;-71
2021/12/15 16:12:24;;;;;;;;;;;5.00;99.90;;;3.98;100.00;97029.16;10436357;28;1896;-74
2021/12/15 16:17:38;;;;;;;;;;;4.90;99.90;;;3.98;100.00;97034.47;10458704;28;1874;-73
2021/12/15 16:23:01;;;;;;;;;;;;;;;4.05;100.00;97030.00;10441363;28;1977;-73
2021/12/15 16:28:05;;;;;;;;;;;;;;;3.80;100.00;97043.84;10444940;28;1992;-71
2021/12/15 16:33:12;;;;;;;;;;;;;;;3.74;100.00;97041.97;10441232;28;1912;-72
2021/12/15 16:38:15;;;;;;;;;;;4.80;99.90;;;3.69;100.00;97041.78;10428054;28;1981;-73
2021/12/15 16:43:22;;;;;;;;;;;4.70;99.90;;;3.76;100.00;97042.63;10439422;28;1850;-73
2021/12/15 16:48:26;;;;;;;;;;;4.80;99.90;;;3.91;100.00;97049.59;10444550;28;1844;-71
2021/12/15 16:53:29;;;;;;;;;;;4.80;99.90;;;3.77;100.00;97065.53;10441036;28;1817;-73
2021/12/15 16:58:51;;;;;;;;;;;4.90;99.90;;;3.70;100.00;97053.22;10437352;28;1922;-73
2021/12/15 17:03:54;;;;;;;;;;;4.90;99.90;;;3.69;100.00;97057.72;10436712;28;1890;-73
2021/12/15 17:08:58;;;;;;;;;;;4.90;99.90;;;3.80;100.00;97054.47;10465036;28;1856;-73
2021/12/15 17:14:25;;;;;;;;;;;4.90;99.90;;;3.62;100.00;97058.69;10429324;28;1919;-70
2021/12/15 17:19:48;;;;;;;;;;;4.80;99.90;;;3.60;100.00;97058.91;10426244;28;1975;-70
2021/12/15 17:24:51;;;;;;;;;;;4.80;99.90;;;3.58;100.00;97063.59;10429012;28;1907;-69
2021/12/15 17:29:54;;;;;;;;;;;4.80;99.90;;;3.57;100.00;97061.16;10427804;28;2201;-69
2021/12/15 17:34:57;;;;;;;;;;;4.70;99.90;;;3.38;100.00;97068.00;10434205;28;1938;-69
2021/12/15 17:40:00;;;;;;;;;;;4.60;99.90;;;3.36;100.00;97065.53;10440032;28;1914;-69
2021/12/15 17:45:03;;;;;;;;;;;4.60;99.90;;;3.58;100.00;97066.25;10429951;28;1850;-68
2021/12/15 17:50:06;;;;;;;;;;;4.70;99.90;;;3.44;100.00;97065.38;10433664;28;1883;-68
2021/12/15 17:55:10;;;;;;;;;;;4.60;99.90;;;3.29;100.00;97066.50;10459682;28;1843;-70
2021/12/15 18:00:12;;;;;;;;;;;4.60;99.90;;;3.25;100.00;97077.56;10445247;28;1915;-70
2021/12/15 18:05:16;;;;;;;;;;;4.50;99.90;;;3.19;100.00;97078.31;10447619;28;1884;-70
2021/12/15 18:10:28;;;;;;;;;;;4.40;99.90;;;3.28;100.00;97065.69;10441116;28;1851;-70
2021/12/15 18:15:31;;;;;;;;;;;4.40;99.90;;;3.30;100.00;97062.84;10447381;28;1811;-70
2021/12/15 18:20:34;;;;;;;;;;;4.40;99.90;;;3.27;100.00;97073.88;10443108;28;1913;-69
2021/12/15 18:25:37;;;;;;;;;;;4.40;99.90;;;3.28;100.00;97078.16;10447051;28;1873;-69
2021/12/15 18:30:40;;;;;;;;;;;4.40;99.90;;;3.34;100.00;97080.03;10455314;28;2267;-69
2021/12/15 18:35:45;;;;;;;;;;;4.40;99.90;;;3.31;100.00;97080.41;10457415;28;1904;-69
2021/12/15 18:40:48;;;;;;;;;;;4.50;99.90;;;3.29;100.00;97083.28;10458758;28;1875;-70
2021/12/15 18:45:51;;;;;;;;;;;4.50;99.90;;;3.18;100.00;97079.34;10465318;28;1862;-69
2021/12/15 18:50:58;;;;;;;;;;;4.40;99.90;;;3.21;100.00;97070.97;10464059;28;1912;-70
2021/12/15 18:56:03;;;;;;;;;;;4.30;99.90;;;3.34;100.00;97064.91;10456558;28;1770;-69
2021/12/15 19:01:07;;;;;;;;;;;4.40;99.90;;;3.41;100.00;97076.41;10453606;28;1891;-70
2021/12/15 19:06:10;;;;;;;;;;;4.50;99.90;;;3.43;100.00;97078.84;10454155;28;1819;-70
2021/12/15 19:11:13;;;;;;;;;;;4.60;99.90;;;3.16;100.00;97081.34;10463798;28;1844;-69
2021/12/15 19:16:16;;;;;;;;;;;4.40;99.90;;;3.25;100.00;97092.69;10467773;28;1786;-70
2021/12/15 19:21:20;;;;;;;;;;;4.40;99.90;;;3.32;100.00;97113.97;10446167;28;2220;-68
2021/12/15 19:26:22;;;;;;;;;;;4.40;99.90;;;3.20;100.00;97122.47;10452218;28;1849;-69
2021/12/15 19:31:25;;;;;;;;;;;4.50;99.90;;;3.25;100.00;97122.72;10442537;28;1925;-69
2021/12/15 19:36:28;;;;;;;;;;;4.40;99.90;;;3.28;100.00;97126.00;10485477;22;1994;-71
2021/12/15 19:41:32;;;;;;;;;;;4.40;99.90;;;3.31;100.00;97125.59;10505928;28;1958;-72
2021/12/15 19:46:35;;;;;;;;;;;4.50;99.90;;;3.35;100.00;97130.34;10493385;28;1902;-71
2021/12/15 19:51:38;;;;;;;;;;;4.50;99.90;;;3.34;100.00;97128.69;10487878;28;1938;-72
2021/12/15 19:56:41;;;;;;;;;;;4.50;99.90;;;3.42;100.00;97127.72;10492146;28;1837;-73
2021/12/15 20:01:44;;;;;;;;;;;4.50;99.90;;;3.43;100.00;97138.16;10485647;28;1910;-72
2021/12/15 20:06:48;;;;;;;;;;;4.60;99.90;;;3.40;100.00;97127.91;10491852;28;1954;-72
2021/12/15 20:11:52;;;;;;;;;;;4.60;99.90;;;3.11;100.00;97117.50;10488662;28;1866;-71
2021/12/15 20:16:55;;;;;;;;;;;4.40;99.90;;;3.29;100.00;97132.94;10487358;28;1954;-72
2021/12/15 20:21:58;;;;;;;;;;;4.40;99.90;;;3.21;100.00;97131.28;10486286;28;1981;-73
2021/12/15 20:27:01;;;;;;;;;;;4.40;99.90;;;3.32;100.00;97133.41;10487850;28;1887;-73
2021/12/15 20:32:04;;;;;;;;;;;4.50;99.90;;;3.34;100.00;97144.66;10487497;28;2169;-72
2021/12/15 20:37:07;;;;;;;;;;;4.50;99.90;;;3.39;100.00;97152.03;10482721;28;1881;-74
2021/12/15 20:42:11;;;;;;;;;;;4.50;99.90;;;3.18;100.00;97156.41;10484441;28;1930;-73
2021/12/15 20:47:15;;;;;;;;;;;4.40;99.90;;;3.15;100.00;97156.78;10481874;28;1910;-73
2021/12/15 20:52:18;;;;;;;;;;;4.30;99.90;;;3.05;100.00;97166.09;10482346;28;2240;-71
2021/12/15 20:57:21;;;;;;;;;;;4.20;99.90;;;3.06;100.00;97176.53;10480472;28;1877;-74
2021/12/15 21:02:25;;;;;;;;;;;4.00;99.90;;;2.95;100.00;97167.25;10480580;28;2289;-71
2021/12/15 21:07:28;;;;;;;;;;;4.10;99.90;;;3.01;100.00;97168.31;10483943;28;1892;-73
2021/12/15 21:12:31;;;;;;;;;;;4.10;99.90;;;3.15;100.00;97167.41;10483583;28;1991;-73
2021/12/15 21:17:33;;;;;;;;;;;4.10;99.90;;;3.01;100.00;97170.16;10480512;28;1966;-73
2021/12/15 21:22:36;;;;;;;;;;;4.20;99.90;;;2.96;100.00;97168.06;10485024;28;1981;-71
2021/12/15 21:27:40;;;;;;;;;;;4.10;99.90;;;3.00;100.00;97163.22;10491199;28;1979;-70
2021/12/15 21:32:42;;;;;;;;;;;4.10;99.90;;;2.91;100.00;97168.63;10492857;28;1877;-71
2021/12/15 21:37:46;;;;;;;;;;;4.00;99.90;;;3.03;100.00;97168.94;10493794;28;1786;-73
2021/12/15 21:42:49;;;;;;;;;;;4.10;99.90;;;2.98;100.00;97172.16;10504552;28;1977;-70
2021/12/15 21:47:52;;;;;;;;;;;4.20;99.90;;;2.95;100.00;97161.94;10514751;28;1871;-73
2021/12/15 21:52:55;;;;;;;;;;;4.00;99.90;;;2.99;100.00;97173.00;10514791;28;1916;-73
2021/12/15 21:57:57;;;;;;;;;;;4.00;99.90;;;2.98;100.00;97166.03;10497582;28;1832;-73
2021/12/15 22:03:01;;;;;;;;;;;4.00;99.90;;;3.08;100.00;97179.00;10507210;28;1917;-73
2021/12/15 22:08:03;;;;;;;;;;;4.00;99.90;;;2.98;100.00;97181.97;10497896;28;1871;-71
2021/12/15 22:13:06;;;;;;;;;;;4.10;99.90;;;3.13;100.00;97190.69;10489064;28;1853;-72
2021/12/15 22:18:09;;;;;;;;;;;4.10;99.90;;;2.98;100.00;97197.91;10491536;28;1906;-72
2021/12/15 22:23:13;;;;;;;;;;;4.20;99.90;;;3.00;100.00;97193.25;10491218;28;2231;-73
2021/12/15 22:28:16;;;;;;;;;;;4.00;99.90;;;3.06;100.00;97203.09;10495020;28;2244;-74
2021/12/15 22:33:20;;;;;;;;;;;4.10;99.90;;;3.06;100.00;97197.78;10497435;28;1864;-72
2021/12/15 22:38:23;;;;;;;;;;;4.10;99.90;;;3.00;100.00;97205.72;10498265;28;2066;-71
2021/12/15 22:43:26;;;;;;;;;;;3.40;99.90;;;2.91;100.00;97207.66;10495630;28;2009;-72
2021/12/15 22:48:29;;;;;;;;;;;4.10;99.90;;;2.75;100.00;97202.59;10504387;28;1888;-71
2021/12/15 22:53:32;;;;;;;;;;;3.90;99.90;;;2.86;100.00;97210.06;10505529;28;1869;-72
2021/12/15 22:58:36;;;;;;;;;;;3.90;99.90;;;2.75;100.00;97214.06;10495708;28;1883;-72
2021/12/15 23:03:39;;;;;;;;;;;3.80;99.90;;;2.62;100.00;97222.69;10499380;28;1954;-72
2021/12/15 23:08:42;;;;;;;;;;;3.80;99.90;;;2.74;100.00;97222.22;10500203;28;1823;-72
2021/12/15 23:13:45;;;;;;;;;;;3.70;99.90;;;2.60;100.00;97208.78;10498884;28;1789;-71
2021/12/15 23:18:48;;;;;;;;;;;3.80;99.90;;;2.63;100.00;97204.94;10497302;28;1884;-71
2021/12/15 23:23:51;;;;;;;;;;;3.70;99.90;;;2.77;100.00;97195.25;10495761;28;1906;-71
2021/12/15 23:28:55;;;;;;;;;;;3.70;99.90;;;2.61;100.00;97205.13;10493172;28;1875;-72
2021/12/15 23:33:58;;;;;;;;;;;3.80;99.90;;;2.38;100.00;97201.81;10501683;28;1899;-71
2021/12/15 23:39:13;;;;;;;;;;;3.60;99.90;;;2.52;100.00;97197.47;10496421;28;1915;-71
